Time;durP1;ratioP1;P1;durP2;ratioP2;P2;SDS_P1;SDS_P2;PMS_P1;PMS_P2;Temp;Humidity;BMP_temperature;BMP_pressure;BME280_temperature;BME280_humidity;BME280_pressure;Samples;Min_cycle;Max_cycle;Signal;HPM_P1;HPM_P2
2022/03/28 00:02:07;;;;;;;;;48.00;37.50;;;;;14.29;43.15;102199.28;4978270;28;45312;-67
2022/03/28 00:04:33;;;;;;;;;48.75;35.75;;;;;14.25;43.53;102197.63;4977660;28;45207;-67
2022/03/28 00:06:58;;;;;;;;;47.25;36.75;;;;;14.23;43.23;102194.19;4977959;28;45362;-67
2022/03/28 00:09:24;;;;;;;;;46.75;34.25;;;;;14.14;43.78;102188.25;4977586;28;45235;-67
2022/03/28 00:11:49;;;;;;;;;46.00;33.75;;;;;14.16;43.79;102189.94;4978213;28;45250;-74
2022/03/28 00:14:15;;;;;;;;;46.25;31.75;;;;;14.08;43.88;102175.31;4977823;28;45253;-71
2022/03/28 00:16:40;;;;;;;;;50.25;38.75;;;;;14.12;43.99;102185.66;4977273;28;46940;-71
2022/03/28 00:19:05;;;;;;;;;54.75;36.50;;;;;14.08;44.03;102184.00;4978838;28;45181;-70
2022/03/28 00:21:31;;;;;;;;;49.25;36.25;;;;;14.06;44.36;102180.56;4982602;28;45746;-70
2022/03/28 00:23:56;;;;;;;;;48.25;37.75;;;;;14.05;44.46;102180.59;4977369;28;45208;-70
2022/03/28 00:26:22;;;;;;;;;50.50;33.50;;;;;14.02;44.80;102176.28;4977718;28;46878;-70
2022/03/28 00:28:48;;;;;;;;;49.75;35.75;;;;;13.99;44.71;102176.31;4972888;28;45429;-70
2022/03/28 00:31:14;;;;;;;;;46.00;33.75;;;;;13.98;45.04;102169.38;4968226;28;45369;-70
2022/03/28 00:33:39;;;;;;;;;50.75;37.00;;;;;13.97;45.13;102175.50;4977334;28;45547;-70
2022/03/28 00:36:05;;;;;;;;;46.25;35.50;;;;;13.93;45.52;102169.47;4977471;28;46350;-70
2022/03/28 00:38:30;;;;;;;;;54.00;37.25;;;;;13.91;45.21;102170.38;4975747;28;45356;-70
2022/03/28 00:40:56;;;;;;;;;51.50;38.25;;;;;13.88;45.46;102160.00;4977809;28;45316;-70
2022/03/28 00:43:21;;;;;;;;;48.75;35.50;;;;;13.86;45.64;102162.63;4977422;28;45277;-70
2022/03/28 00:45:47;;;;;;;;;41.50;33.75;;;;;13.83;45.86;102154.00;4977702;28;46104;-71
2022/03/28 00:48:12;;;;;;;;;40.25;33.50;;;;;13.80;46.08;102161.88;4977076;28;45226;-66
2022/03/28 00:50:38;;;;;;;;;42.25;36.00;;;;;13.77;45.93;102161.94;4977406;28;45274;-66
2022/03/28 00:53:09;;;;;;;;;44.75;33.75;;;;;13.75;46.24;102156.72;4977074;28;45228;-66
2022/03/28 00:55:34;;;;;;;;;39.50;36.25;;;;;13.72;46.33;102154.19;4977174;28;46097;-66
2022/03/28 00:58:00;;;;;;;;;41.00;30.50;;;;;13.66;46.55;102144.72;4976530;28;45445;-67
2022/03/28 01:00:25;;;;;;;;;48.75;37.25;;;;;13.66;46.82;102154.28;4977489;28;45321;-66
2022/03/28 01:02:51;;;;;;;;;42.25;35.50;;;;;13.65;46.81;102155.19;4977125;28;45418;-66
2022/03/28 01:05:17;;;;;;;;;51.00;37.00;;;;;13.61;46.70;102146.50;4976985;28;45322;-66
2022/03/28 01:07:42;;;;;;;;;51.25;37.75;;;;;13.61;47.09;102143.91;4977132;28;45153;-66
2022/03/28 01:10:10;;;;;;;;;46.50;37.50;;;;;13.60;47.03;102147.41;4977112;28;45156;-66
2022/03/28 01:12:37;;;;;;;;;45.50;36.00;;;;;13.59;47.06;102145.69;4976888;28;45407;-66
2022/03/28 01:15:04;;;;;;;;;52.50;39.50;;;;;13.55;47.19;102136.19;4976967;28;46114;-66
2022/03/28 01:20:14;;;;;;;;;52.50;39.75;;;;;13.53;47.71;102129.28;4965645;28;45656;-66
2022/03/28 01:22:40;;;;;;;;;52.50;36.50;;;;;13.50;47.54;102142.38;4976915;28;45271;-66
2022/03/28 01:25:07;;;;;;;;;52.75;37.50;;;;;13.47;47.34;102135.47;4976517;28;45409;-66
2022/03/28 01:27:33;;;;;;;;;48.50;35.00;;;;;13.43;47.67;102133.81;4965707;28;45233;-66
2022/03/28 01:29:59;;;;;;;;;51.50;37.75;;;;;13.26;47.91;102112.34;4980150;28;45254;-69
2022/03/28 01:32:24;;;;;;;;;43.25;36.75;;;;;13.41;47.75;102135.56;4979881;28;45333;-69
2022/03/28 01:34:50;;;;;;;;;50.25;37.75;;;;;13.40;47.91;102133.81;4968203;28;45290;-69
2022/03/28 01:37:15;;;;;;;;;42.00;31.00;;;;;13.36;48.03;102127.81;4979941;28;45235;-69
2022/03/28 01:39:41;;;;;;;;;53.25;38.25;;;;;13.35;48.21;102122.59;4979666;28;45361;-69
2022/03/28 01:42:07;;;;;;;;;46.00;36.25;;;;;13.32;48.21;102123.53;4969027;28;45229;-69
2022/03/28 01:44:32;;;;;;;;;50.50;39.25;;;;;13.32;48.25;102125.28;4979483;28;47820;-70
2022/03/28 01:46:57;;;;;;;;;43.50;37.75;;;;;13.30;48.55;102124.44;4979937;28;45305;-69
2022/03/28 01:49:23;;;;;;;;;52.00;40.00;;;;;13.28;48.85;102123.59;4968529;28;45495;-69
2022/03/28 01:51:49;;;;;;;;;61.25;45.25;;;;;13.25;49.18;102121.06;4979407;28;45497;-70
2022/03/28 01:54:15;;;;;;;;;57.00;45.00;;;;;13.20;49.29;102113.28;4979083;28;46268;-68
2022/03/28 01:56:41;;;;;;;;;49.75;38.50;;;;;13.19;49.05;102118.53;4967147;28;45485;-68
2022/03/28 01:59:08;;;;;;;;;49.25;38.00;;;;;13.17;49.30;102120.25;4979549;28;45441;-68
2022/03/28 02:01:34;;;;;;;;;47.50;39.25;;;;;13.15;49.59;102119.44;4979799;28;45246;-68
2022/03/28 02:04:00;;;;;;;;;51.00;39.75;;;;;13.09;50.48;102113.44;4979076;28;46471;-68
2022/03/28 02:06:26;;;;;;;;;54.50;38.50;;;;;13.09;51.23;102118.66;4979615;28;45276;-68
2022/03/28 02:08:52;;;;;;;;;45.00;35.25;;;;;13.06;51.62;102115.22;4979214;28;45504;-69
2022/03/28 02:11:17;;;;;;;;;50.00;39.50;;;;;13.02;51.60;102114.44;4979660;28;45329;-68
2022/03/28 02:13:42;;;;;;;;;54.00;40.25;;;;;13.00;52.48;102115.31;4979073;28;45666;-67
2022/03/28 02:16:09;;;;;;;;;48.75;40.50;;;;;12.98;52.74;102114.47;4979593;28;45521;-65
2022/03/28 02:18:34;;;;;;;;;54.50;40.50;;;;;12.94;52.04;102118.03;4978953;28;45377;-65
2022/03/28 02:21:00;;;;;;;;;56.00;41.50;;;;;12.86;53.02;102114.69;4992789;28;45402;-65
2022/03/28 02:23:25;;;;;;;;;55.75;41.50;;;;;12.84;54.16;102116.44;4978697;28;45489;-65
2022/03/28 02:25:51;;;;;;;;;51.75;40.25;;;;;12.82;54.02;102113.88;4979072;28;45274;-66
2022/03/28 02:28:16;;;;;;;;;56.50;41.00;;;;;12.79;54.41;102116.50;4978098;28;45374;-65
2022/03/28 02:30:42;;;;;;;;;56.00;39.00;;;;;12.74;55.08;102111.34;4965033;28;45316;-65
2022/03/28 02:33:08;;;;;;;;;56.75;42.75;;;;;12.74;55.22;102116.56;4969051;28;45457;-66
2022/03/28 02:35:34;;;;;;;;;53.25;39.75;;;;;12.71;55.74;102107.94;4968610;28;45228;-66
2022/03/28 02:38:01;;;;;;;;;59.50;42.50;;;;;12.68;56.30;102097.53;4970437;28;45246;-64
2022/03/28 02:40:32;;;;;;;;;59.00;40.25;;;;;12.67;56.39;102104.50;4978632;27;46146;-68
2022/03/28 02:42:59;;;;;;;;;58.00;42.50;;;;;12.67;56.73;102096.69;4978882;28;45290;-68
2022/03/28 02:45:33;;;;;;;;;56.00;42.00;;;;;12.60;56.78;102087.19;4979171;28;45729;-67
2022/03/28 02:48:00;;;;;;;;;57.00;42.50;;;;;12.64;57.97;102095.88;4978763;28;45244;-68
2022/03/28 02:50:26;;;;;;;;;59.25;44.50;;;;;12.63;57.94;102083.72;4978979;28;45253;-68
2022/03/28 02:52:52;;;;;;;;;61.00;43.25;;;;;12.62;57.82;102087.22;4978345;28;46497;-68
2022/03/28 02:55:17;;;;;;;;;56.00;37.75;;;;;12.63;58.23;102086.31;4970554;28;45383;-67
2022/03/28 02:57:43;;;;;;;;;60.50;45.50;;;;;12.60;58.17;102083.72;4974184;28;45337;-68
2022/03/28 03:00:10;;;;;;;;;57.75;44.25;;;;;12.60;58.36;102083.72;4978729;28;45322;-69
2022/03/28 03:02:40;;;;;;;;;66.50;44.75;;;;;12.57;58.41;102073.34;4978496;28;46178;-65
2022/03/28 03:05:07;;;;;;;;;59.50;43.50;;;;;12.57;59.86;102073.34;4978436;28;45849;-65
2022/03/28 03:07:33;;;;;;;;;65.75;45.25;;;;;12.52;58.56;102070.81;4978577;28;45335;-65
2022/03/28 03:09:59;;;;;;;;;62.25;43.75;;;;;12.48;60.36;102074.34;4976614;28;45461;-64
2022/03/28 03:12:24;;;;;;;;;55.75;41.25;;;;;12.45;60.09;102070.06;4976060;28;45857;-67
2022/03/28 03:14:51;;;;;;;;;64.25;48.00;;;;;12.40;59.57;102065.75;4976240;27;46587;-67
2022/03/28 03:17:17;;;;;;;;;65.00;43.75;;;;;12.36;61.01;102061.47;4976214;28;45541;-67
2022/03/28 03:19:43;;;;;;;;;65.50;42.25;;;;;12.30;60.66;102058.97;4967511;28;45430;-68
2022/03/28 03:22:09;;;;;;;;;58.25;42.00;;;;;12.27;61.90;102057.25;4976911;28;47032;-69
2022/03/28 03:24:34;;;;;;;;;55.50;41.25;;;;;12.24;61.59;102059.06;4977166;28;45272;-68
2022/03/28 03:27:00;;;;;;;;;64.50;45.00;;;;;12.22;62.19;102053.88;4978482;28;45145;-68
2022/03/28 03:29:27;;;;;;;;;54.75;41.00;;;;;12.21;61.73;102053.84;4967510;28;45303;-68
2022/03/28 03:31:52;;;;;;;;;52.75;41.50;;;;;12.20;61.21;102060.81;4975600;28;45541;-68
2022/03/28 03:34:19;;;;;;;;;63.50;44.50;;;;;12.20;62.16;102045.19;4978330;28;45326;-68
2022/03/28 03:36:45;;;;;;;;;60.75;42.50;;;;;12.20;62.44;102058.22;4978278;28;45285;-68
2022/03/28 03:39:10;;;;;;;;;65.00;46.75;;;;;12.20;62.21;102050.38;4978227;28;45524;-67
2022/03/28 03:41:35;;;;;;;;;66.50;47.75;;;;;12.21;62.54;102054.72;4978075;28;46122;-75
2022/03/28 03:44:01;;;;;;;;;64.50;45.00;;;;;12.17;62.90;102046.09;4978505;28;45331;-75
2022/03/28 03:46:26;;;;;;;;;63.25;46.00;;;;;12.21;62.65;102059.94;4978233;28;45309;-75
2022/03/28 03:48:51;;;;;;;;;59.25;42.75;;;;;12.20;62.85;102055.59;4978107;28;45553;-73
2022/03/28 03:51:17;;;;;;;;;62.00;45.75;;;;;12.20;62.92;102058.22;4977301;28;46276;-74
2022/03/28 03:53:43;;;;;;;;;66.50;47.25;;;;;12.19;63.14;102054.75;4977147;28;45478;-76
2022/03/28 03:56:08;;;;;;;;;58.25;44.75;;;;;12.18;62.97;102049.53;4977380;28;45267;-76
2022/03/28 03:58:34;;;;;;;;;62.25;46.25;;;;;12.14;62.85;102051.34;4978163;28;45268;-76
2022/03/28 04:00:59;;;;;;;;;65.50;46.25;;;;;12.11;63.20;102048.78;4977680;28;47225;-76
2022/03/28 04:03:24;;;;;;;;;65.00;48.25;;;;;12.12;63.26;102052.25;4977861;28;45192;-76
2022/03/28 04:05:50;;;;;;;;;61.75;46.25;;;;;12.10;63.00;102048.81;4977853;28;45929;-74
2022/03/28 04:08:15;;;;;;;;;61.25;46.75;;;;;12.08;64.00;102048.81;4977818;28;45271;-74
2022/03/28 04:10:42;;;;;;;;;63.50;45.50;;;;;12.06;63.48;102045.38;4977738;28;45284;-73
2022/03/28 04:13:08;;;;;;;;;69.00;48.25;;;;;12.04;63.75;102039.31;4977734;28;45520;-73
2022/03/28 04:15:33;;;;;;;;;63.25;46.50;;;;;12.01;63.83;102049.75;4977812;28;45976;-72
2022/03/28 04:17:59;;;;;;;;;66.00;47.00;;;;;12.03;64.00;102047.16;4977666;28;45339;-71
2022/03/28 04:20:25;;;;;;;;;67.75;45.75;;;;;12.01;64.55;102048.91;4967937;28;46241;-71
2022/03/28 04:22:51;;;;;;;;;62.75;47.25;;;;;12.01;64.32;102048.91;4977705;28;45855;-71
2022/03/28 04:25:17;;;;;;;;;63.75;45.25;;;;;11.99;64.34;102048.06;4977541;28;46439;-71
2022/03/28 04:27:43;;;;;;;;;59.50;46.50;;;;;11.97;64.70;102049.81;4977537;28;45474;-73
2022/03/28 04:30:10;;;;;;;;;68.25;48.50;;;;;11.98;64.65;102051.53;4980199;28;46041;-72
2022/03/28 04:32:36;;;;;;;;;69.75;48.25;;;;;11.96;64.92;102040.28;4977762;28;45752;-71
2022/03/28 04:35:04;;;;;;;;;67.50;49.25;;;;;11.94;65.61;102049.88;4977160;28;45213;-76
2022/03/28 04:37:34;;;;;;;;;64.00;46.25;;;;;11.96;64.93;102058.53;4977632;28;45306;-69
2022/03/28 04:40:00;;;;;;;;;68.25;47.25;;;;;11.95;64.97;102052.44;4976993;28;46257;-67
2022/03/28 04:42:25;;;;;;;;;64.75;48.00;;;;;11.94;65.57;102055.94;4977725;28;45231;-67
2022/03/28 04:44:51;;;;;;;;;58.25;45.00;;;;;11.94;65.31;102052.47;4977329;28;45417;-68
2022/03/28 04:47:16;;;;;;;;;62.50;48.00;;;;;11.92;65.15;102042.06;4977321;28;45372;-67
2022/03/28 04:49:42;;;;;;;;;66.75;48.00;;;;;11.91;65.31;102045.56;4976526;28;47071;-67
2022/03/28 04:52:07;;;;;;;;;72.00;51.00;;;;;11.88;65.73;102043.00;4976660;28;45354;-67
2022/03/28 04:54:33;;;;;;;;;65.50;45.75;;;;;11.82;65.75;102028.31;4976686;28;45338;-68
2022/03/28 04:56:58;;;;;;;;;66.00;47.50;;;;;11.85;65.40;102040.44;4976685;28;45249;-68
2022/03/28 04:59:24;;;;;;;;;67.50;45.75;;;;;11.83;65.67;102032.63;4976754;28;45326;-68
2022/03/28 05:01:49;;;;;;;;;55.75;45.00;;;;;11.81;65.82;102039.63;4977237;28;45334;-67
2022/03/28 05:04:15;;;;;;;;;65.75;48.50;;;;;11.81;65.59;102031.81;4976371;28;45299;-66
2022/03/28 05:06:41;;;;;;;;;69.00;50.00;;;;;11.83;66.25;102030.03;4977009;28;45490;-68
2022/03/28 05:09:06;;;;;;;;;64.75;46.00;;;;;11.83;66.03;102032.63;4976445;28;45410;-66
2022/03/28 05:11:31;;;;;;;;;61.75;48.00;;;;;11.81;65.96;102033.50;4977053;28;45446;-68
2022/03/28 05:14:00;;;;;;;;;63.50;46.25;;;;;11.81;66.07;102029.19;4976746;28;45543;-68
2022/03/28 05:16:26;;;;;;;;;58.25;44.00;;;;;11.82;65.62;102032.66;4977082;28;45401;-67
2022/03/28 05:18:51;;;;;;;;;66.25;47.75;;;;;11.80;66.24;102024.84;4973860;28;45302;-68
2022/03/28 05:21:16;;;;;;;;;67.75;48.25;;;;;11.76;67.05;102020.50;4970617;28;45197;-68
2022/03/28 05:23:42;;;;;;;;;66.00;48.00;;;;;11.77;66.49;102030.06;4976591;28;45446;-68
2022/03/28 05:26:07;;;;;;;;;60.75;46.75;;;;;11.76;66.83;102024.88;4976857;28;45354;-67
2022/03/28 05:28:32;;;;;;;;;64.00;45.75;;;;;11.75;65.88;102031.81;4973168;28;46249;-68
2022/03/28 05:30:58;;;;;;;;;61.25;45.25;;;;;11.73;67.10;102033.56;4966980;28;45354;-66
2022/03/28 05:33:24;;;;;;;;;68.00;49.00;;;;;11.69;67.54;102026.69;4976075;28;45373;-72
2022/03/28 05:35:50;;;;;;;;;70.25;48.50;;;;;11.66;65.90;102031.94;4975974;28;45434;-78
2022/03/28 05:38:17;;;;;;;;;58.50;47.50;;;;;11.67;66.24;102030.19;4973312;28;45669;-80
2022/03/28 05:40:43;;;;;;;;;71.00;49.25;;;;;11.66;66.53;102034.53;4976065;28;45296;-79
2022/03/28 05:43:08;;;;;;;;;64.25;47.25;;;;;11.64;68.04;102025.88;4975877;28;45278;-79
2022/03/28 05:45:35;;;;;;;;;62.25;47.50;;;;;11.66;66.86;102041.50;4976471;28;45479;-79
2022/03/28 05:48:00;;;;;;;;;62.50;49.50;;;;;11.67;66.57;102035.41;4973805;28;47295;-80
2022/03/28 05:50:25;;;;;;;;;67.25;48.25;;;;;11.67;66.76;102031.06;4976533;28;45277;-79
2022/03/28 05:52:51;;;;;;;;;71.00;52.50;;;;;11.69;66.31;102029.28;4975732;28;45189;-75
2022/03/28 05:55:16;;;;;;;;;66.75;49.00;;;;;11.71;66.31;102032.75;4976051;28;45466;-75
2022/03/28 05:57:41;;;;;;;;;67.50;48.50;;;;;11.70;66.63;102028.41;4975503;28;45257;-75
2022/03/28 06:00:09;;;;;;;;;72.25;51.75;;;;;11.75;66.30;102028.34;4976334;28;45172;-76
2022/03/28 06:02:36;;;;;;;;;65.75;48.00;;;;;11.78;66.20;102021.38;4976038;28;45265;-72
2022/03/28 06:05:02;;;;;;;;;65.75;49.00;;;;;11.84;66.96;102028.28;4975824;28;45425;-71
2022/03/28 06:07:27;;;;;;;;;66.00;46.25;;;;;11.87;66.79;102031.72;4974157;28;46111;-71
2022/03/28 06:09:53;;;;;;;;;66.00;48.50;;;;;11.89;67.01;102021.28;4975726;28;45224;-73
2022/03/28 06:12:18;;;;;;;;;62.33;46.00;;;;;11.89;66.96;102029.09;4975795;28;45426;-70
2022/03/28 06:14:43;;;;;;;;;71.00;47.75;;;;;11.91;67.35;102031.66;4976057;28;45237;-70
2022/03/28 06:17:09;;;;;;;;;64.00;46.50;;;;;11.92;66.92;102030.78;4978632;28;45340;-70
2022/03/28 06:19:34;;;;;;;;;66.25;49.00;;;;;11.95;66.70;102022.94;4970069;28;45207;-69
2022/03/28 06:21:59;;;;;;;;;56.67;46.00;;;;;11.96;67.21;102029.88;4977589;28;46398;-69
2022/03/28 06:24:25;;;;;;;;;69.00;49.25;;;;;11.93;67.13;102024.69;4978772;28;45659;-70
2022/03/28 06:26:50;;;;;;;;;64.75;46.25;;;;;11.85;69.03;102014.38;4978612;28;45995;-68
2022/03/28 06:29:16;;;;;;;;;64.50;43.75;;;;;11.88;67.46;102023.03;4969811;28;45161;-68
2022/03/28 06:31:41;;;;;;;;;62.25;47.00;;;;;11.93;67.54;102022.09;4974959;28;45203;-74
2022/03/28 06:34:07;;;;;;;;;64.00;46.50;;;;;11.93;67.78;102016.88;4978474;28;45161;-74
2022/03/28 06:36:34;;;;;;;;;66.25;50.00;;;;;11.96;67.79;102022.06;4978276;28;47127;-76
2022/03/28 06:39:00;;;;;;;;;66.50;49.00;;;;;11.96;67.38;102022.06;4978573;28;45460;-73
2022/03/28 06:41:26;;;;;;;;;64.25;44.75;;;;;11.99;67.18;102022.88;4978739;28;45319;-72
2022/03/28 06:43:52;;;;;;;;;70.25;50.25;;;;;12.00;67.48;102021.13;4978413;28;45289;-71
2022/03/28 06:46:17;;;;;;;;;66.50;48.00;;;;;12.02;67.24;102019.38;4977926;28;46173;-65
2022/03/28 06:48:43;;;;;;;;;64.50;46.25;;;;;12.02;67.21;102016.78;4977909;28;45212;-63
2022/03/28 06:51:09;;;;;;;;;68.25;49.25;;;;;12.05;67.55;102021.94;4977860;28;45284;-67
2022/03/28 06:53:34;;;;;;;;;65.75;46.75;;;;;12.08;67.10;102019.31;4978261;28;45389;-68
2022/03/28 06:56:01;;;;;;;;;70.50;47.25;;;;;12.11;67.40;102016.66;4975911;28;46543;-68
2022/03/28 06:58:27;;;;;;;;;67.50;46.50;;;;;12.13;67.03;102013.13;4978475;28;45223;-69
2022/03/28 07:00:53;;;;;;;;;65.50;47.00;;;;;12.15;67.51;102011.38;4977447;28;45622;-69
2022/03/28 07:03:19;;;;;;;;;66.75;46.50;;;;;12.23;67.10;102015.63;4964722;28;45408;-69
2022/03/28 07:05:44;;;;;;;;;67.00;51.50;;;;;12.22;66.97;102016.53;4968874;28;45657;-70
2022/03/28 07:08:12;;;;;;;;;66.25;48.75;;;;;12.22;67.05;102014.78;4970732;28;45410;-71
2022/03/28 07:10:37;;;;;;;;;70.50;47.50;;;;;12.23;66.92;102013.88;4970242;28;45294;-70
2022/03/28 07:13:02;;;;;;;;;70.25;51.25;;;;;12.28;67.20;102008.59;4969344;28;45390;-72
2022/03/28 07:15:28;;;;;;;;;66.67;47.33;;;;;12.33;65.98;102006.78;4978036;28;45405;-72
2022/03/28 07:18:02;;;;;;;;;71.25;50.25;;;;;12.33;66.71;102005.03;4978483;28;45220;-70
2022/03/28 07:20:29;;;;;;;;;70.75;50.00;;;;;12.42;66.49;102007.53;4968676;28;45394;-65
2022/03/28 07:22:56;;;;;;;;;61.50;45.75;;;;;12.52;66.49;102004.75;4978318;28;45456;-65
2022/03/28 07:25:22;;;;;;;;;68.25;48.25;;;;;12.59;66.15;102009.00;4978174;28;46348;-64
2022/03/28 07:27:49;;;;;;;;;71.00;51.00;;;;;12.63;66.23;102005.47;4978281;28;45466;-66
2022/03/28 07:30:15;;;;;;;;;67.25;48.25;;;;;12.66;65.99;102011.50;4980838;28;45329;-66
2022/03/28 07:32:41;;;;;;;;;69.00;47.50;;;;;12.70;66.06;102007.09;4977889;28;45311;-64
2022/03/28 07:35:08;;;;;;;;;64.50;48.75;;;;;12.77;65.90;102003.47;4977753;28;45248;-66
2022/03/28 07:37:34;;;;;;;;;69.00;48.75;;;;;12.88;65.95;102000.72;4978181;28;45195;-63
2022/03/28 07:40:00;;;;;;;;;69.25;48.00;;;;;12.96;65.95;102002.28;4977966;28;45417;-66
2022/03/28 07:42:26;;;;;;;;;66.00;49.25;;;;;13.09;65.75;101998.59;4977990;28;46379;-63
2022/03/28 07:44:55;;;;;;;;;71.00;51.25;;;;;13.20;65.57;102002.78;4977672;28;46069;-62
2022/03/28 07:47:22;;;;;;;;;72.00;51.50;;;;;13.29;65.04;102002.63;4978058;28;45844;-65
2022/03/28 07:49:47;;;;;;;;;69.75;50.00;;;;;13.39;64.84;101998.94;4977954;28;45248;-62
2022/03/28 07:52:13;;;;;;;;;67.50;49.50;;;;;13.50;65.07;101994.38;4977699;28;45157;-63
2022/03/28 07:54:38;;;;;;;;;77.67;53.00;;;;;13.56;64.62;101991.63;4977414;28;45420;-63
2022/03/28 07:57:03;;;;;;;;;69.67;49.33;;;;;13.65;64.58;101993.22;4977567;28;45253;-64
2022/03/28 07:59:29;;;;;;;;;70.25;50.00;;;;;13.77;64.14;101989.47;4977847;28;45169;-65
2022/03/28 08:01:55;;;;;;;;;70.25;53.50;;;;;13.85;63.78;101990.19;4977835;28;45293;-64
2022/03/28 08:04:20;;;;;;;;;68.75;51.25;;;;;13.93;63.84;101988.28;4977326;28;46282;-64
2022/03/28 08:06:45;;;;;;;;;71.50;50.50;;;;;14.03;63.36;101992.44;4977852;28;45348;-63
2022/03/28 08:09:11;;;;;;;;;64.00;49.00;;;;;14.14;63.26;101989.56;4977891;28;45231;-63
2022/03/28 08:11:36;;;;;;;;;74.75;52.25;;;;;14.22;63.07;102001.59;4977903;28;45203;-64
2022/03/28 08:14:03;;;;;;;;;66.00;49.00;;;;;14.35;62.67;101996.06;4977575;28;46027;-62
2022/03/28 08:16:29;;;;;;;;;64.75;50.50;;;;;14.46;62.43;101996.72;4978111;28;45315;-62
2022/03/28 08:18:54;;;;;;;;;70.50;49.50;;;;;14.53;61.96;101995.66;4973575;28;45372;-65
2022/03/28 08:21:20;;;;;;;;;67.50;52.50;;;;;14.58;62.07;102001.63;4971586;28;45362;-61
2022/03/28 08:23:45;;;;;;;;;73.00;51.50;;;;;14.61;61.53;101997.19;4979280;28;45340;-62
2022/03/28 08:26:10;;;;;;;;;62.75;46.25;;;;;14.65;61.44;101990.16;4987778;28;45307;-58
2022/03/28 08:28:36;;;;;;;;;62.33;48.00;;;;;14.69;61.59;101983.94;4974646;28;45334;-62
2022/03/28 08:31:02;;;;;;;;;71.75;50.75;;;;;14.78;61.28;101983.69;4967871;28;45273;-63
2022/03/28 08:33:27;;;;;;;;;69.50;52.00;;;;;14.86;61.02;101987.00;4975476;28;46978;-59
2022/03/28 08:35:53;;;;;;;;;67.00;48.25;;;;;14.91;60.93;101984.25;4977557;28;45398;-60
2022/03/28 08:38:19;;;;;;;;;68.00;50.25;;;;;15.00;60.85;101983.16;4976493;28;45457;-59
2022/03/28 08:40:44;;;;;;;;;68.00;49.75;;;;;15.11;60.64;101987.22;4977552;28;45339;-60
2022/03/28 08:43:10;;;;;;;;;69.50;50.25;;;;;15.23;60.52;101975.56;4977155;28;46076;-64
2022/03/28 08:45:39;;;;;;;;;67.50;49.50;;;;;15.34;60.42;101973.50;4977447;28;45454;-79
2022/03/28 08:48:06;;;;;;;;;62.75;50.00;;;;;15.48;60.05;101976.59;4973098;28;45314;-74
2022/03/28 08:50:32;;;;;;;;;61.75;45.75;;;;;15.58;59.94;101971.09;4973428;28;45483;-59
2022/03/28 08:52:58;;;;;;;;;64.75;50.50;;;;;15.66;59.46;101975.25;4976795;28;46358;-58
2022/03/28 08:55:24;;;;;;;;;63.25;47.50;;;;;15.72;59.36;101969.81;4960218;28;45252;-61
2022/03/28 08:57:50;;;;;;;;;68.00;51.75;;;;;15.85;59.43;101978.19;4957765;28;45193;-59
2022/03/28 09:00:15;;;;;;;;;67.75;47.75;;;;;15.99;59.08;101978.63;4958031;28;45285;-59
2022/03/28 09:02:46;;;;;;;;;66.00;47.75;;;;;16.09;58.79;101961.72;4957243;28;47082;-64
2022/03/28 09:05:15;;;;;;;;;65.50;49.00;;;;;16.23;58.48;101961.31;4957752;28;45359;-61
2022/03/28 09:07:42;;;;;;;;;63.75;47.00;;;;;16.37;58.34;101966.94;4959989;28;45434;-66
2022/03/28 09:10:13;;;;;;;;;67.25;47.25;;;;;16.51;58.73;101957.78;4957668;28;45434;-73
2022/03/28 09:13:01;;;;;;;;;66.25;49.00;;;;;16.64;58.62;101962.59;4957305;28;46308;-74
2022/03/28 09:15:55;;;;;;;;;64.00;47.75;;;;;16.74;58.51;101965.78;4957300;28;45457;-76
2022/03/28 09:18:36;;;;;;;;;61.75;47.00;;;;;16.84;57.80;101963.72;4957297;28;45292;-66
2022/03/28 09:21:14;;;;;;;;;62.75;47.00;;;;;16.94;56.54;101959.84;4963159;28;45297;-73
2022/03/28 09:23:45;;;;;;;;;68.00;48.00;;;;;16.95;56.79;101954.53;4975111;28;47435;-72
2022/03/28 09:26:20;;;;;;;;;66.50;49.00;;;;;17.05;56.48;101952.47;4976951;28;45267;-69
2022/03/28 09:28:56;;;;;;;;;62.75;47.00;;;;;17.22;56.86;101947.47;4971954;28;45583;-66
2022/03/28 09:31:28;;;;;;;;;63.75;47.50;;;;;17.37;58.37;101947.81;4970079;28;45422;-74
2022/03/28 09:33:56;;;;;;;;;66.00;48.25;;;;;17.55;56.05;101950.63;4976422;28;45357;-71
2022/03/28 09:36:45;;;;;;;;;66.25;48.25;;;;;17.61;55.09;101950.38;4975844;28;45343;-73
2022/03/28 09:39:19;;;;;;;;;66.75;49.75;;;;;17.73;55.76;101953.53;4975705;28;45312;-63
2022/03/28 09:42:05;;;;;;;;;65.50;46.00;;;;;17.89;54.66;101949.41;4976292;28;45525;-71
2022/03/28 09:44:53;;;;;;;;;65.75;48.50;;;;;17.96;54.90;101953.50;4976358;28;45277;-73
2022/03/28 09:47:23;;;;;;;;;64.25;45.50;;;;;18.05;53.39;101941.78;4976320;28;45361;-68
2022/03/28 09:49:54;;;;;;;;;67.50;48.00;;;;;18.14;53.12;101944.03;4975127;28;45423;-69
2022/03/28 09:52:22;;;;;;;;;65.25;49.00;;;;;18.24;53.17;101942.75;4979321;28;45472;-68
2022/03/28 09:54:50;;;;;;;;;58.25;45.00;;;;;18.35;52.34;101934.41;4975072;28;46193;-72
2022/03/28 09:57:18;;;;;;;;;63.50;47.75;;;;;18.46;53.08;101934.84;4979250;28;45760;-72
2022/03/28 09:59:44;;;;;;;;;61.50;47.00;;;;;18.58;51.90;101934.31;4979059;28;45482;-70
2022/03/28 10:02:23;;;;;;;;;60.25;46.25;;;;;18.72;51.43;101933.78;4978974;28;45314;-67
2022/03/28 10:04:52;;;;;;;;;64.50;48.75;;;;;18.89;52.09;101930.41;4966144;28;46221;-69
2022/03/28 10:07:18;;;;;;;;;62.00;46.50;;;;;19.04;52.03;101922.72;4978747;28;45852;-67
2022/03/28 10:09:44;;;;;;;;;58.00;43.00;;;;;19.21;50.53;101927.22;4978467;28;45421;-66
2022/03/28 10:12:10;;;;;;;;;62.00;45.25;;;;;19.31;50.96;101917.13;4978372;28;45370;-67
2022/03/28 10:14:37;;;;;;;;;56.75;42.50;;;;;19.45;51.25;101917.38;4978444;28;46241;-65
2022/03/28 10:17:05;;;;;;;;;62.00;45.25;;;;;19.51;49.90;101914.44;4978521;28;45827;-72
2022/03/28 10:19:32;;;;;;;;;59.00;44.25;;;;;19.57;50.43;101916.81;4982052;28;45224;-68
2022/03/28 10:22:01;;;;;;;;;63.25;46.75;;;;;19.56;50.61;101901.06;4980562;28;45417;-69
2022/03/28 10:24:29;;;;;;;;;56.00;43.00;;;;;19.61;49.13;101905.19;4978390;28;45443;-74
2022/03/28 10:26:57;;;;;;;;;58.25;42.25;;;;;19.67;48.00;101904.06;4977725;28;45403;-63
2022/03/28 10:29:23;;;;;;;;;58.75;43.25;;;;;19.72;47.73;101895.00;4982163;28;45295;-64
2022/03/28 10:31:52;;;;;;;;;55.50;42.00;;;;;19.76;47.17;101893.06;4978117;28;45505;-65
2022/03/28 10:34:47;;;;;;;;;57.25;42.25;;;;;19.89;46.80;101888.06;4977882;28;46998;-65
2022/03/28 10:37:27;;;;;;;;;53.50;41.75;;;;;20.05;46.58;101884.63;4978131;28;45971;-62
2022/03/28 10:40:11;;;;;;;;;59.00;42.00;;;;;20.18;44.91;101874.31;4977760;28;45416;-67
2022/03/28 10:42:38;;;;;;;;;60.00;43.00;;;;;20.32;44.64;101868.34;4978222;28;45385;-65
2022/03/28 10:45:07;;;;;;;;;62.00;45.00;;;;;20.45;44.84;101863.34;4978067;28;45361;-66
2022/03/28 10:47:59;;;;;;;;;54.75;42.75;;;;;20.57;44.07;101854.78;4978201;28;45255;-65
2022/03/28 10:50:26;;;;;;;;;55.75;42.00;;;;;20.70;43.97;101861.13;4971258;28;45330;-65
2022/03/28 10:53:05;;;;;;;;;50.25;40.25;;;;;20.85;42.91;101859.50;4977701;28;45426;-63
2022/03/28 10:55:53;;;;;;;;;54.00;41.75;;;;;20.92;43.39;101853.78;4977847;28;46094;-75
2022/03/28 10:58:28;;;;;;;;;56.50;41.50;;;;;20.97;42.07;101858.81;4966104;28;45422;-72
2022/03/28 11:01:06;;;;;;;;;50.75;40.25;;;;;20.98;41.28;101860.53;4977452;28;45465;-74
2022/03/28 11:03:47;;;;;;;;;53.00;40.25;;;;;21.05;41.19;101846.06;4978156;28;45579;-67
2022/03/28 11:06:15;;;;;;;;;47.75;38.50;;;;;21.10;40.60;101840.53;4977926;28;46313;-58
2022/03/28 11:08:57;;;;;;;;;48.75;35.00;;;;;21.17;40.49;101826.88;4977928;28;45335;-57
2022/03/28 11:11:27;;;;;;;;;49.50;40.25;;;;;21.31;40.28;101826.19;4967313;28;45374;-49
2022/03/28 11:13:57;;;;;;;;;52.75;37.75;;;;;21.42;39.37;101821.13;4977378;28;45491;-57